Time;durP1;ratioP1;P1;durP2;ratioP2;P2;SDS_P1;SDS_P2;PMS_P1;PMS_P2;Temp;Humidity;BMP_temperature;BMP_pressure;BME280_temperature;BME280_humidity;BME280_pressure;Samples;Min_cycle;Max_cycle;Signal;HPM_P1;HPM_P2
2023/03/14 00:01:30;;;;;;;133.45;6.35;;;;;;;;;;4981323;28;20054;-64
2023/03/14 00:03:55;;;;;;;337.30;10.88;;;;;;;;;;4980359;28;20109;-60
2023/03/14 00:06:20;;;;;;;279.88;15.63;;;;;;;;;;4983963;28;20042;-59
2023/03/14 00:08:46;;;;;;;40.83;4.35;;;;;;;;;;4984868;28;20065;-62
2023/03/14 00:11:14;;;;;;;157.43;10.13;;;;;;;;;;4983980;28;20034;-61
2023/03/14 00:13:40;;;;;;;482.48;22.23;;;;;;;;;;4983069;28;20038;-63
2023/03/14 00:16:06;;;;;;;284.98;16.20;;;;;;;;;;4982799;28;20073;-60
2023/03/14 00:18:32;;;;;;;343.13;11.60;;;;;;;;;;4980436;28;20058;-59
2023/03/14 00:20:59;;;;;;;12.15;3.20;;;;;;;;;;4980751;28;20117;-63
2023/03/14 00:23:24;;;;;;;72.63;5.97;;;;;;;;;;4987430;28;20026;-60
2023/03/14 00:25:49;;;;;;;45.25;4.55;;;;;;;;;;4986475;28;20045;-60
2023/03/14 00:28:14;;;;;;;200.75;8.98;;;;;;;;;;4985880;28;20479;-60
2023/03/14 00:30:40;;;;;;;20.08;3.67;;;;;;;;;;4984294;28;20030;-61
2023/03/14 00:33:08;;;;;;;177.25;11.32;;;;;;;;;;4985361;28;20556;-63
2023/03/14 00:35:33;;;;;;;9.90;3.10;;;;;;;;;;4984670;28;20613;-60
2023/03/14 00:37:58;;;;;;;81.28;6.05;;;;;;;;;;4988161;28;20076;-60
2023/03/14 00:40:24;;;;;;;6.60;2.72;;;;;;;;;;4986802;28;20030;-59
2023/03/14 00:42:49;;;;;;;11.77;2.97;;;;;;;;;;4985351;28;20026;-60
2023/03/14 00:45:14;;;;;;;603.35;18.52;;;;;;;;;;4994185;28;21973;-61
2023/03/14 00:47:39;;;;;;;37.03;4.30;;;;;;;;;;4986843;28;20030;-60
2023/03/14 00:50:05;;;;;;;258.25;10.35;;;;;;;;;;4983832;28;20109;-61
2023/03/14 00:52:30;;;;;;;19.55;2.47;;;;;;;;;;4964204;28;20041;-61
2023/03/14 00:54:56;;;;;;;77.43;4.68;;;;;;;;;;4984560;28;20113;-60
2023/03/14 00:57:21;;;;;;;145.80;7.78;;;;;;;;;;4984904;28;20133;-63
2023/03/14 00:59:46;;;;;;;177.63;7.90;;;;;;;;;;4984245;28;20030;-59
2023/03/14 01:02:11;;;;;;;13.80;2.33;;;;;;;;;;4988180;28;20037;-60
2023/03/14 01:04:39;;;;;;;229.77;11.05;;;;;;;;;;4984272;28;20034;-60
2023/03/14 01:07:04;;;;;;;;;;;;;;;;;;4986535;28;20368;-61
2023/03/14 01:09:30;;;;;;;135.07;6.90;;;;;;;;;;4966723;28;19917;-60
2023/03/14 01:11:55;;;;;;;130.38;5.40;;;;;;;;;;4987349;28;20019;-61
2023/03/14 01:14:22;;;;;;;52.08;3.80;;;;;;;;;;4986860;28;20217;-59
2023/03/14 01:16:47;;;;;;;122.30;4.47;;;;;;;;;;4983923;28;20488;-60
2023/03/14 01:19:12;;;;;;;9.70;2.20;;;;;;;;;;4983770;28;20034;-60
2023/03/14 01:21:38;;;;;;;16.70;2.40;;;;;;;;;;4985759;28;20117;-60
2023/03/14 01:24:04;;;;;;;28.92;3.17;;;;;;;;;;4983312;28;20117;-60
2023/03/14 01:26:31;;;;;;;63.30;4.15;;;;;;;;;;4981633;28;20749;-60
2023/03/14 01:28:57;;;;;;;5.43;1.80;;;;;;;;;;4974852;28;20559;-61
2023/03/14 01:31:22;;;;;;;90.43;4.05;;;;;;;;;;4980885;28;20170;-60
2023/03/14 01:33:48;;;;;;;16.48;2.53;;;;;;;;;;4982408;28;20080;-60
2023/03/14 01:36:13;;;;;;;43.92;3.22;;;;;;;;;;4968538;28;20023;-61
2023/03/14 01:38:40;;;;;;;3.40;1.58;;;;;;;;;;4985240;28;20046;-61
2023/03/14 01:41:11;;;;;;;2.88;1.48;;;;;;;;;;4981849;28;20495;-60
2023/03/14 01:43:36;;;;;;;2.55;1.48;;;;;;;;;;4984038;28;20391;-58
2023/03/14 01:46:05;;;;;;;31.02;2.50;;;;;;;;;;4977858;28;20482;-60
2023/03/14 01:48:34;;;;;;;2.08;1.30;;;;;;;;;;4985520;28;20096;-59
2023/03/14 01:51:00;;;;;;;4.00;1.33;;;;;;;;;;4982004;28;20554;-59
2023/03/14 01:53:26;;;;;;;8.05;1.75;;;;;;;;;;4985313;28;20038;-61
2023/03/14 01:55:52;;;;;;;6.07;1.52;;;;;;;;;;4983398;28;20106;-60
2023/03/14 01:58:19;;;;;;;3.75;1.40;;;;;;;;;;4991426;28;20136;-61
2023/03/14 02:00:45;;;;;;;4.00;1.73;;;;;;;;;;4981462;28;20041;-60
2023/03/14 02:03:12;;;;;;;28.90;2.83;;;;;;;;;;4983481;28;20034;-59
2023/03/14 02:05:39;;;;;;;3.63;1.60;;;;;;;;;;4976032;28;20089;-61
2023/03/14 02:08:11;;;;;;;3.35;1.67;;;;;;;;;;4984490;28;20038;-61
2023/03/14 02:10:44;;;;;;;6.05;1.80;;;;;;;;;;4981697;28;20918;-61
2023/03/14 02:13:10;;;;;;;;;;;;;;;;;;4983290;28;20084;-62
2023/03/14 02:15:46;;;;;;;2.03;1.40;;;;;;;;;;4983505;28;20023;-60
2023/03/14 02:18:32;;;;;;;5.30;1.80;;;;;;;;;;4982894;28;21615;-61
2023/03/14 02:21:21;;;;;;;3.13;1.42;;;;;;;;;;4983406;28;20065;-59
2023/03/14 02:23:59;;;;;;;2.30;1.50;;;;;;;;;;4984487;28;20054;-60
2023/03/14 02:26:36;;;;;;;4.13;2.00;;;;;;;;;;4982043;28;20173;-59
2023/03/14 02:29:02;;;;;;;4.07;1.90;;;;;;;;;;4982051;28;20030;-60
2023/03/14 02:31:28;;;;;;;3.35;1.63;;;;;;;;;;4986324;28;20049;-60
2023/03/14 02:33:54;;;;;;;2.85;1.65;;;;;;;;;;4982407;28;20026;-60
2023/03/14 02:36:20;;;;;;;2.92;1.48;;;;;;;;;;4982194;28;20034;-61
2023/03/14 02:38:55;;;;;;;4.33;1.70;;;;;;;;;;4984763;28;20034;-60
2023/03/14 02:41:22;;;;;;;3.83;1.60;;;;;;;;;;4983093;28;20044;-60
2023/03/14 02:43:57;;;;;;;3.28;1.48;;;;;;;;;;4981541;28;20042;-58
2023/03/14 02:46:23;;;;;;;1.73;1.40;;;;;;;;;;4967032;28;20053;-60
2023/03/14 02:48:53;;;;;;;1.88;1.20;;;;;;;;;;4982319;28;20034;-59
2023/03/14 02:51:20;;;;;;;3.60;1.33;;;;;;;;;;4981995;28;20030;-63
2023/03/14 02:53:46;;;;;;;5.72;1.60;;;;;;;;;;4982594;28;20122;-59
2023/03/14 02:56:12;;;;;;;3.50;1.80;;;;;;;;;;4983918;28;20145;-60
2023/03/14 02:58:38;;;;;;;3.38;1.52;;;;;;;;;;4983451;28;20034;-59
2023/03/14 03:01:11;;;;;;;1.98;1.38;;;;;;;;;;4978806;28;20058;-60
2023/03/14 03:03:37;;;;;;;2.05;1.20;;;;;;;;;;4982124;28;20065;-60
2023/03/14 03:06:02;;;;;;;3.08;1.40;;;;;;;;;;4985568;28;20765;-59
2023/03/14 03:08:28;;;;;;;3.70;1.40;;;;;;;;;;4983338;28;20034;-59
2023/03/14 03:10:56;;;;;;;6.93;1.65;;;;;;;;;;4982392;28;20030;-61
2023/03/14 03:13:21;;;;;;;5.17;1.60;;;;;;;;;;4982335;28;20089;-60
2023/03/14 03:15:51;;;;;;;2.60;1.60;;;;;;;;;;4983602;28;20300;-58
2023/03/14 03:18:17;;;;;;;3.45;1.60;;;;;;;;;;4984108;28;20513;-61
2023/03/14 03:20:42;;;;;;;2.47;1.50;;;;;;;;;;4980771;28;20026;-58
2023/03/14 03:23:08;;;;;;;6.18;1.60;;;;;;;;;;4980994;28;20034;-59
2023/03/14 03:25:33;;;;;;;4.95;1.98;;;;;;;;;;4983521;28;20038;-59
2023/03/14 03:28:02;;;;;;;2.90;1.48;;;;;;;;;;4984581;28;20034;-58
2023/03/14 03:30:27;;;;;;;6.20;1.50;;;;;;;;;;4984726;28;20080;-59
2023/03/14 03:32:52;;;;;;;5.80;1.58;;;;;;;;;;4977705;28;20042;-62
2023/03/14 03:35:18;;;;;;;3.25;1.60;;;;;;;;;;4979224;28;20045;-59
2023/03/14 03:37:43;;;;;;;3.95;1.52;;;;;;;;;;4982773;28;20039;-58
2023/03/14 03:40:09;;;;;;;4.10;1.67;;;;;;;;;;4982196;28;20037;-59
2023/03/14 03:42:35;;;;;;;2.95;1.50;;;;;;;;;;4985443;28;20030;-58
2023/03/14 03:45:01;;;;;;;3.45;2.20;;;;;;;;;;4980310;28;20041;-58
2023/03/14 03:47:27;;;;;;;7.30;1.67;;;;;;;;;;4971828;28;20041;-58
2023/03/14 03:49:55;;;;;;;4.07;1.80;;;;;;;;;;4983565;28;20031;-59
2023/03/14 03:52:20;;;;;;;2.33;1.60;;;;;;;;;;4984290;28;20399;-59
2023/03/14 03:54:45;;;;;;;5.13;1.60;;;;;;;;;;4982916;28;20125;-58
2023/03/14 03:57:11;;;;;;;3.28;1.70;;;;;;;;;;4982896;28;20435;-59
2023/03/14 03:59:38;;;;;;;4.18;1.65;;;;;;;;;;4980354;28;20030;-61
2023/03/14 04:02:03;;;;;;;;;;;;;;;;;;4982097;28;20029;-61
2023/03/14 04:04:29;;;;;;;2.97;1.70;;;;;;;;;;4975291;28;19914;-59
2023/03/14 04:06:54;;;;;;;4.93;1.90;;;;;;;;;;4966498;28;20527;-61
2023/03/14 04:09:20;;;;;;;5.53;1.80;;;;;;;;;;4986539;28;20030;-62
2023/03/14 04:11:56;;;;;;;8.75;1.80;;;;;;;;;;4982808;28;20034;-61
2023/03/14 04:14:28;;;;;;;3.85;1.77;;;;;;;;;;4984160;28;20057;-61
2023/03/14 04:17:08;;;;;;;2.72;1.40;;;;;;;;;;4981790;28;20335;-59
2023/03/14 04:19:33;;;;;;;5.18;1.88;;;;;;;;;;4976181;28;20728;-60
2023/03/14 04:21:58;;;;;;;3.13;1.65;;;;;;;;;;4980801;28;20066;-61
2023/03/14 04:24:28;;;;;;;4.82;1.70;;;;;;;;;;4984891;28;20030;-59
2023/03/14 04:26:55;;;;;;;4.72;1.70;;;;;;;;;;4981110;28;20112;-60
2023/03/14 04:29:21;;;;;;;5.80;1.92;;;;;;;;;;4996414;28;20042;-61
2023/03/14 04:31:46;;;;;;;4.95;1.80;;;;;;;;;;4982117;28;20038;-59
2023/03/14 04:34:12;;;;;;;4.75;1.92;;;;;;;;;;4979726;28;20034;-59
2023/03/14 04:36:43;;;;;;;9.88;1.67;;;;;;;;;;4980300;28;20045;-58
2023/03/14 04:39:14;;;;;;;8.57;1.75;;;;;;;;;;4964362;28;20034;-62
2023/03/14 04:41:46;;;;;;;4.07;1.48;;;;;;;;;;4981987;28;20045;-60
2023/03/14 04:44:12;;;;;;;6.80;2.42;;;;;;;;;;4980810;28;20027;-60
2023/03/14 04:46:37;;;;;;;8.68;2.05;;;;;;;;;;4981311;28;20038;-61
2023/03/14 04:49:05;;;;;;;9.10;2.22;;;;;;;;;;4982340;28;20037;-61
2023/03/14 04:51:30;;;;;;;4.30;2.13;;;;;;;;;;4982825;28;20410;-61
2023/03/14 04:53:56;;;;;;;7.28;2.00;;;;;;;;;;4979672;28;20942;-61
2023/03/14 04:56:21;;;;;;;6.03;1.77;;;;;;;;;;4973376;28;20050;-61
2023/03/14 04:58:47;;;;;;;10.65;2.03;;;;;;;;;;4980995;28;20027;-60
2023/03/14 05:01:15;;;;;;;6.65;2.08;;;;;;;;;;4980893;28;20026;-60
2023/03/14 05:03:59;;;;;;;9.48;2.35;;;;;;;;;;4982061;28;20035;-59
2023/03/14 05:06:44;;;;;;;8.57;2.20;;;;;;;;;;4981077;28;20209;-57
2023/03/14 05:09:23;;;;;;;12.68;2.60;;;;;;;;;;4983431;28;20080;-59
2023/03/14 05:12:11;;;;;;;6.07;2.10;;;;;;;;;;4993640;28;20444;-59
2023/03/14 05:14:59;;;;;;;5.65;1.48;;;;;;;;;;4994721;28;20066;-60
2023/03/14 05:17:48;;;;;;;6.47;1.80;;;;;;;;;;4983923;28;20060;-59
2023/03/14 05:20:29;;;;;;;9.27;2.22;;;;;;;;;;4976690;28;20038;-61
2023/03/14 05:23:13;;;;;;;7.63;2.20;;;;;;;;;;4982338;28;20041;-59
2023/03/14 05:25:48;;;;;;;6.68;2.03;;;;;;;;;;4985321;28;20037;-60
2023/03/14 05:28:37;;;;;;;7.95;2.03;;;;;;;;;;4975282;28;20046;-59
2023/03/14 05:31:12;;;;;;;5.22;1.70;;;;;;;;;;4984656;28;20050;-61
2023/03/14 05:33:57;;;;;;;12.38;2.05;;;;;;;;;;4983047;28;20084;-61
2023/03/14 05:36:52;;;;;;;4.35;1.30;;;;;;;;;;4974744;28;20038;-61
2023/03/14 05:39:37;;;;;;;6.28;1.55;;;;;;;;;;4982119;28;20038;-60
2023/03/14 05:42:23;;;;;;;10.23;1.80;;;;;;;;;;4983411;28;20096;-60
2023/03/14 05:45:05;;;;;;;8.52;1.80;;;;;;;;;;4984041;28;20997;-59
2023/03/14 05:47:49;;;;;;;7.30;2.00;;;;;;;;;;4985251;28;20053;-60
2023/03/14 05:50:28;;;;;;;5.25;1.63;;;;;;;;;;4982040;28;20721;-59
2023/03/14 05:53:12;;;;;;;4.60;1.65;;;;;;;;;;4981673;28;20041;-61
2023/03/14 05:55:56;;;;;;;6.10;1.95;;;;;;;;;;4985480;28;20104;-61
2023/03/14 05:58:52;;;;;;;3.33;1.52;;;;;;;;;;4981080;28;20454;-62
2023/03/14 06:01:24;;;;;;;5.05;1.48;;;;;;;;;;4978474;28;20570;-60
2023/03/14 06:04:08;;;;;;;5.28;1.50;;;;;;;;;;4979295;28;20077;-61
2023/03/14 06:06:34;;;;;;;6.80;1.50;;;;;;;;;;4980942;28;20121;-61
2023/03/14 06:09:00;;;;;;;4.45;1.58;;;;;;;;;;4985373;28;20048;-61
2023/03/14 06:11:26;;;;;;;4.70;1.45;;;;;;;;;;4980920;28;20031;-59
2023/03/14 06:13:51;;;;;;;5.00;1.30;;;;;;;;;;4978425;28;20037;-60
2023/03/14 06:16:16;;;;;;;3.85;1.63;;;;;;;;;;4982765;28;20830;-61
2023/03/14 06:18:42;;;;;;;5.20;1.40;;;;;;;;;;4981816;28;20026;-58
2023/03/14 06:21:09;;;;;;;3.30;1.33;;;;;;;;;;4978075;28;20027;-62
2023/03/14 06:23:36;;;;;;;5.18;1.70;;;;;;;;;;4983082;28;20505;-62
2023/03/14 06:26:02;;;;;;;4.32;1.42;;;;;;;;;;4977855;28;20122;-62
2023/03/14 06:28:28;;;;;;;4.68;1.70;;;;;;;;;;4978789;28;20034;-62
2023/03/14 06:30:58;;;;;;;2.35;1.10;;;;;;;;;;4981588;28;20089;-60
2023/03/14 06:33:24;;;;;;;2.08;1.30;;;;;;;;;;4982132;28;20081;-60
2023/03/14 06:35:49;;;;;;;3.88;1.42;;;;;;;;;;4979865;28;20118;-61
2023/03/14 06:38:14;;;;;;;7.88;2.00;;;;;;;;;;4982360;28;20026;-61
2023/03/14 06:40:40;;;;;;;6.15;1.70;;;;;;;;;;4982035;28;20030;-59
2023/03/14 06:43:10;;;;;;;3.45;1.30;;;;;;;;;;4981865;28;20037;-64
2023/03/14 06:45:37;;;;;;;9.90;2.25;;;;;;;;;;4982118;28;20042;-60
2023/03/14 06:48:03;;;;;;;3.03;1.50;;;;;;;;;;4980861;28;20046;-62
2023/03/14 06:50:43;;;;;;;3.72;1.70;;;;;;;;;;4980849;28;20104;-66
2023/03/14 06:53:09;;;;;;;5.97;2.03;;;;;;;;;;4983875;28;20442;-60
2023/03/14 06:55:37;;;;;;;6.32;1.60;;;;;;;;;;4983234;28;20041;-63
2023/03/14 06:58:03;;;;;;;6.93;2.13;;;;;;;;;;4983378;28;20038;-61
2023/03/14 07:00:30;;;;;;;;;;;;;;;;;;4983520;28;20040;-63
2023/03/14 07:02:56;;;;;;;4.97;1.92;;;;;;;;;;4979154;28;19913;-64
2023/03/14 07:05:27;;;;;;;2.85;1.40;;;;;;;;;;4981935;28;20022;-59
2023/03/14 07:07:52;;;;;;;6.68;1.50;;;;;;;;;;4976319;28;20132;-61
2023/03/14 07:10:18;;;;;;;3.30;1.63;;;;;;;;;;4982646;28;20049;-59
2023/03/14 07:12:43;;;;;;;4.10;1.50;;;;;;;;;;4980483;28;20100;-61
2023/03/14 07:15:08;;;;;;;3.90;1.30;;;;;;;;;;4981426;28;20034;-59
2023/03/14 07:17:34;;;;;;;3.10;1.33;;;;;;;;;;4980586;28;20034;-59
2023/03/14 07:20:00;;;;;;;5.65;1.52;;;;;;;;;;4977398;28;20026;-60
2023/03/14 07:22:25;;;;;;;2.92;1.48;;;;;;;;;;4978884;28;20038;-61
2023/03/14 07:24:51;;;;;;;2.30;1.35;;;;;;;;;;4979958;28;20069;-59
2023/03/14 07:27:17;;;;;;;2.28;1.20;;;;;;;;;;4981421;28;20041;-59
2023/03/14 07:29:42;;;;;;;2.53;1.20;;;;;;;;;;4978690;28;20030;-59
2023/03/14 07:32:08;;;;;;;3.13;1.20;;;;;;;;;;4979763;28;20153;-59
2023/03/14 07:34:33;;;;;;;4.63;1.40;;;;;;;;;;4982006;28;20161;-59
2023/03/14 07:36:59;;;;;;;4.40;1.23;;;;;;;;;;4979712;28;20042;-59
2023/03/14 07:39:25;;;;;;;4.88;1.30;;;;;;;;;;4980916;28;20069;-61
2023/03/14 07:42:03;;;;;;;1.70;1.30;;;;;;;;;;4979442;28;20034;-59
2023/03/14 07:44:52;;;;;;;6.50;1.92;;;;;;;;;;4997942;28;20022;-60
2023/03/14 07:47:18;;;;;;;4.90;1.33;;;;;;;;;;4983898;28;20038;-60
2023/03/14 07:49:43;;;;;;;3.67;1.02;;;;;;;;;;4981176;28;20061;-61
2023/03/14 07:52:08;;;;;;;3.47;1.10;;;;;;;;;;4983205;28;20031;-59
2023/03/14 07:54:33;;;;;;;2.63;1.30;;;;;;;;;;4981691;28;20045;-59
2023/03/14 07:57:00;;;;;;;3.40;1.30;;;;;;;;;;4980800;28;20074;-60
2023/03/14 07:59:26;;;;;;;1.90;1.10;;;;;;;;;;4985392;28;20080;-60
2023/03/14 08:01:51;;;;;;;2.15;1.13;;;;;;;;;;4981939;28;20034;-59
2023/03/14 08:04:16;;;;;;;4.20;1.10;;;;;;;;;;4981787;28;20026;-59
2023/03/14 08:06:42;;;;;;;1.95;1.20;;;;;;;;;;4980849;28;20053;-59
2023/03/14 08:09:07;;;;;;;2.78;1.00;;;;;;;;;;4980098;28;20139;-62
2023/03/14 08:11:32;;;;;;;2.05;1.08;;;;;;;;;;4982404;28;20462;-61
2023/03/14 08:13:58;;;;;;;3.38;1.40;;;;;;;;;;4983156;28;20857;-59
2023/03/14 08:16:23;;;;;;;2.35;1.30;;;;;;;;;;4980863;28;20026;-59
2023/03/14 08:18:48;;;;;;;2.90;1.25;;;;;;;;;;4984536;28;20031;-60
2023/03/14 08:21:14;;;;;;;2.03;1.15;;;;;;;;;;4980072;28;20157;-59
2023/03/14 08:23:39;;;;;;;3.17;1.20;;;;;;;;;;4981806;28;20046;-59
2023/03/14 08:26:05;;;;;;;2.75;1.15;;;;;;;;;;4979556;28;20161;-61
2023/03/14 08:28:32;;;;;;;3.42;1.15;;;;;;;;;;4980762;28;20128;-59
2023/03/14 08:30:58;;;;;;;3.72;1.30;;;;;;;;;;4984000;28;20041;-59
2023/03/14 08:33:23;;;;;;;2.78;1.20;;;;;;;;;;4981383;28;20034;-61
2023/03/14 08:35:51;;;;;;;2.80;1.02;;;;;;;;;;4981450;28;20038;-61
2023/03/14 08:38:17;;;;;;;10.63;1.17;;;;;;;;;;4982713;28;20035;-60
2023/03/14 08:40:42;;;;;;;2.85;1.40;;;;;;;;;;4980860;28;20642;-62
2023/03/14 08:43:07;;;;;;;2.20;1.13;;;;;;;;;;4984095;28;20046;-62
2023/03/14 08:45:32;;;;;;;1.90;1.15;;;;;;;;;;4988102;28;20059;-59
2023/03/14 08:47:58;;;;;;;2.55;1.20;;;;;;;;;;4988386;28;20049;-59
2023/03/14 08:50:24;;;;;;;1.42;0.98;;;;;;;;;;4987547;28;20054;-60
2023/03/14 08:52:49;;;;;;;1.40;0.70;;;;;;;;;;4984681;28;20038;-59
2023/03/14 08:55:14;;;;;;;1.15;0.95;;;;;;;;;;4979803;28;20034;-60
2023/03/14 08:57:40;;;;;;;3.92;0.90;;;;;;;;;;4985329;28;20042;-60
2023/03/14 09:00:12;;;;;;;2.80;1.08;;;;;;;;;;4984458;28;20039;-60
2023/03/14 09:02:38;;;;;;;3.28;0.93;;;;;;;;;;4987477;28;20146;-59
2023/03/14 09:05:04;;;;;;;3.60;1.02;;;;;;;;;;4984513;28;20022;-59
2023/03/14 09:07:29;;;;;;;1.70;1.10;;;;;;;;;;4986748;28;20056;-60
2023/03/14 09:09:54;;;;;;;2.40;1.33;;;;;;;;;;4984899;28;20719;-59
2023/03/14 09:12:19;;;;;;;2.95;0.90;;;;;;;;;;4987639;28;20114;-60
2023/03/14 09:14:45;;;;;;;1.02;0.75;;;;;;;;;;4984725;28;20049;-60
2023/03/14 09:17:10;;;;;;;1.70;0.80;;;;;;;;;;4986128;28;20499;-61
2023/03/14 09:19:36;;;;;;;3.08;0.80;;;;;;;;;;4981795;28;20057;-60
2023/03/14 09:22:01;;;;;;;2.03;1.30;;;;;;;;;;4984986;28;20807;-60
2023/03/14 09:24:27;;;;;;;2.13;1.08;;;;;;;;;;4983843;28;20518;-60
2023/03/14 09:26:52;;;;;;;1.25;0.85;;;;;;;;;;4975724;28;20027;-60
2023/03/14 09:29:18;;;;;;;2.30;1.02;;;;;;;;;;4986143;28;20038;-62
2023/03/14 09:31:43;;;;;;;1.80;1.08;;;;;;;;;;4983703;28;21333;-61
2023/03/14 09:34:08;;;;;;;0.82;0.73;;;;;;;;;;4983128;28;20040;-60
2023/03/14 09:36:33;;;;;;;3.95;0.90;;;;;;;;;;4984744;28;20471;-60
2023/03/14 09:38:59;;;;;;;1.63;0.73;;;;;;;;;;4981742;28;20034;-59
2023/03/14 09:41:29;;;;;;;1.33;0.90;;;;;;;;;;4984647;28;20395;-60
2023/03/14 09:44:13;;;;;;;0.80;0.80;;;;;;;;;;4981841;28;20332;-60
2023/03/14 09:46:39;;;;;;;1.30;0.70;;;;;;;;;;4990118;28;20791;-60
2023/03/14 09:49:34;;;;;;;0.60;0.60;;;;;;;;;;4987479;28;20026;-62
2023/03/14 09:52:00;;;;;;;0.52;0.52;;;;;;;;;;4989882;28;20064;-60
2023/03/14 09:54:31;;;;;;;0.98;0.70;;;;;;;;;;4981616;28;20529;-60
2023/03/14 09:56:56;;;;;;;5.35;2.42;;;;;;;;;;4985612;28;20034;-60
2023/03/14 09:59:21;;;;;;;1.48;1.00;;;;;;;;;;4982721;28;20030;-59
2023/03/14 10:01:46;;;;;;;1.95;1.10;;;;;;;;;;4981159;28;20490;-61
2023/03/14 10:04:17;;;;;;;0.80;0.80;;;;;;;;;;4983142;28;20026;-59
2023/03/14 10:06:43;;;;;;;1.27;0.88;;;;;;;;;;4984447;28;20118;-58
2023/03/14 10:09:17;;;;;;;3.00;1.00;;;;;;;;;;4984052;28;20105;-59
2023/03/14 10:11:42;;;;;;;0.77;0.77;;;;;;;;;;4983946;28;20039;-61
2023/03/14 10:14:14;;;;;;;1.13;0.85;;;;;;;;;;4984819;28;20026;-60
2023/03/14 10:16:44;;;;;;;1.92;0.90;;;;;;;;;;4996191;28;20049;-59
2023/03/14 10:19:11;;;;;;;1.77;0.93;;;;;;;;;;4985594;28;20042;-60
2023/03/14 10:21:38;;;;;;;1.10;0.93;;;;;;;;;;4982947;28;20109;-60
2023/03/14 10:24:18;;;;;;;2.42;1.10;;;;;;;;;;4983669;28;20065;-59
2023/03/14 10:26:47;;;;;;;0.68;0.60;;;;;;;;;;4983187;28;20554;-59
2023/03/14 10:29:12;;;;;;;0.75;0.75;;;;;;;;;;4983417;28;20080;-60
2023/03/14 10:31:56;;;;;;;1.23;1.00;;;;;;;;;;4982871;28;20026;-59
2023/03/14 10:34:23;;;;;;;3.70;0.80;;;;;;;;;;4985272;28;20030;-59
2023/03/14 10:36:52;;;;;;;2.28;1.20;;;;;;;;;;4984178;28;20046;-60
2023/03/14 10:39:17;;;;;;;0.93;0.77;;;;;;;;;;4984560;28;20513;-60
2023/03/14 10:41:53;;;;;;;1.40;0.90;;;;;;;;;;4982688;28;20034;-60
2023/03/14 10:44:20;;;;;;;0.88;0.82;;;;;;;;;;4983527;28;20035;-59
2023/03/14 10:46:46;;;;;;;4.05;0.98;;;;;;;;;;4999623;28;20049;-59
2023/03/14 10:49:27;;;;;;;2.30;0.95;;;;;;;;;;4977819;28;20030;-60
2023/03/14 10:51:53;;;;;;;3.30;0.70;;;;;;;;;;4980807;28;20042;-59
2023/03/14 10:54:23;;;;;;;0.70;0.70;;;;;;;;;;4983506;28;20084;-59
2023/03/14 10:57:03;;;;;;;1.63;1.00;;;;;;;;;;4981233;28;20049;-61
2023/03/14 10:59:34;;;;;;;1.00;0.77;;;;;;;;;;4982735;28;20068;-60
2023/03/14 11:02:14;;;;;;;1.65;0.80;;;;;;;;;;4982439;28;20070;-60
2023/03/14 11:04:45;;;;;;;1.08;1.00;;;;;;;;;;4980669;28;20138;-61
2023/03/14 11:07:26;;;;;;;1.00;0.77;;;;;;;;;;4987952;28;20717;-61
2023/03/14 11:09:57;;;;;;;0.95;0.85;;;;;;;;;;5001625;28;20041;-61
2023/03/14 11:12:28;;;;;;;1.40;0.95;;;;;;;;;;5018465;28;20406;-60
2023/03/14 11:14:56;;;;;;;2.45;0.90;;;;;;;;;;5022733;28;20487;-61
2023/03/14 11:17:30;;;;;;;0.73;0.73;;;;;;;;;;5021636;28;21227;-59
2023/03/14 11:20:08;;;;;;;1.25;0.95;;;;;;;;;;5022075;28;20037;-60
2023/03/14 11:22:37;;;;;;;3.08;0.80;;;;;;;;;;5019297;28;20044;-59
2023/03/14 11:25:05;;;;;;;0.73;0.73;;;;;;;;;;5018293;28;20041;-61
2023/03/14 11:27:37;;;;;;;0.80;0.80;;;;;;;;;;5016363;28;20064;-60
2023/03/14 11:30:06;;;;;;;1.20;0.93;;;;;;;;;;5019053;28;20072;-59
2023/03/14 11:32:31;;;;;;;1.55;0.75;;;;;;;;;;5008185;28;20083;-60
2023/03/14 11:34:59;;;;;;;0.70;0.70;;;;;;;;;;5009735;28;20037;-59
2023/03/14 11:37:36;;;;;;;1.15;0.80;;;;;;;;;;5012973;28;20958;-62
2023/03/14 11:40:19;;;;;;;0.63;0.63;;;;;;;;;;5021595;28;20124;-61
2023/03/14 11:42:47;;;;;;;0.70;0.70;;;;;;;;;;5023014;28;20037;-61
2023/03/14 11:45:18;;;;;;;0.90;0.90;;;;;;;;;;5021576;28;20029;-63
2023/03/14 11:47:44;;;;;;;0.90;0.70;;;;;;;;;;5021621;28;20462;-61
2023/03/14 11:50:18;;;;;;;1.13;0.85;;;;;;;;;;5021441;28;21381;-63
2023/03/14 11:52:48;;;;;;;1.77;0.80;;;;;;;;;;5019010;28;20114;-61
2023/03/14 11:55:25;;;;;;;0.70;0.70;;;;;;;;;;5018831;28;20441;-62
2023/03/14 11:57:52;;;;;;;1.23;0.88;;;;;;;;;;5023428;28;20045;-63
2023/03/14 12:00:22;;;;;;;1.05;0.93;;;;;;;;;;5022052;28;20437;-63
2023/03/14 12:03:06;;;;;;;0.80;0.80;;;;;;;;;;5025536;28;20038;-61
2023/03/14 12:05:53;;;;;;;1.42;0.82;;;;;;;;;;5020606;28;20052;-63
2023/03/14 12:08:37;;;;;;;0.77;0.77;;;;;;;;;;5022444;28;20500;-64
2023/03/14 12:11:13;;;;;;;0.73;0.73;;;;;;;;;;5019956;28;20040;-63
2023/03/14 12:13:39;;;;;;;0.90;0.90;;;;;;;;;;5023396;28;20112;-63
2023/03/14 12:16:20;;;;;;;0.95;0.80;;;;;;;;;;5022761;28;20074;-62
2023/03/14 12:18:45;;;;;;;0.70;0.70;;;;;;;;;;5023560;28;20037;-61
2023/03/14 12:21:11;;;;;;;1.05;0.85;;;;;;;;;;5025533;28;20048;-60
2023/03/14 12:23:42;;;;;;;0.80;0.80;;;;;;;;;;5022275;28;20091;-60
2023/03/14 12:26:14;;;;;;;0.88;0.75;;;;;;;;;;5023893;28;20029;-63
2023/03/14 12:28:42;;;;;;;2.88;1.27;;;;;;;;;;5022302;28;20136;-62
2023/03/14 12:31:26;;;;;;;1.20;1.08;;;;;;;;;;5025531;28;20053;-62
2023/03/14 12:34:01;;;;;;;0.90;0.90;;;;;;;;;;5023064;28;20039;-61
2023/03/14 12:36:42;;;;;;;1.80;1.08;;;;;;;;;;5023538;28;20048;-62
2023/03/14 12:39:15;;;;;;;2.63;1.00;;;;;;;;;;5020112;28;20053;-65
2023/03/14 12:41:44;;;;;;;0.90;0.85;;;;;;;;;;5022887;28;20057;-61
2023/03/14 12:44:28;;;;;;;1.15;0.98;;;;;;;;;;5025866;28;20116;-60
2023/03/14 12:46:53;;;;;;;0.82;0.82;;;;;;;;;;5021955;28;20040;-61
2023/03/14 12:49:19;;;;;;;2.35;1.00;;;;;;;;;;5024054;28;20025;-62
2023/03/14 12:51:44;;;;;;;2.15;1.05;;;;;;;;;;5031487;28;20377;-62
2023/03/14 12:54:42;;;;;;;2.10;1.10;;;;;;;;;;5025204;28;20033;-59
2023/03/14 12:57:07;;;;;;;2.80;1.40;;;;;;;;;;4997332;28;20050;-62
2023/03/14 12:59:45;;;;;;;1.88;1.50;;;;;;;;;;5022851;28;20032;-60
2023/03/14 13:02:19;;;;;;;1.40;1.30;;;;;;;;;;5022025;28;21722;-60
2023/03/14 13:05:00;;;;;;;2.25;1.50;;;;;;;;;;5019489;28;20033;-59
2023/03/14 13:07:31;;;;;;;3.22;1.80;;;;;;;;;;5020743;28;20064;-62
2023/03/14 13:10:08;;;;;;;3.78;1.60;;;;;;;;;;5017462;28;20040;-62
2023/03/14 13:12:52;;;;;;;5.35;2.25;;;;;;;;;;5021229;28;20739;-61
2023/03/14 13:15:29;;;;;;;5.47;1.90;;;;;;;;;;5021449;28;20078;-62
2023/03/14 13:17:58;;;;;;;2.95;1.83;;;;;;;;;;5020206;28;20755;-63
2023/03/14 13:20:31;;;;;;;2.30;1.58;;;;;;;;;;5024287;28;20072;-61
2023/03/14 13:22:56;;;;;;;3.20;1.75;;;;;;;;;;5023691;28;20037;-64
2023/03/14 13:25:22;;;;;;;4.35;1.95;;;;;;;;;;5020424;28;20025;-62
2023/03/14 13:27:48;;;;;;;5.03;1.80;;;;;;;;;;5023927;28;20045;-61
2023/03/14 13:30:13;;;;;;;5.13;1.50;;;;;;;;;;5025094;28;20026;-61
2023/03/14 13:32:41;;;;;;;1.90;1.38;;;;;;;;;;5024475;28;20041;-66
2023/03/14 13:35:14;;;;;;;2.75;1.50;;;;;;;;;;5021049;28;20028;-64
2023/03/14 13:37:39;;;;;;;3.03;1.20;;;;;;;;;;5023179;28;20064;-66
2023/03/14 13:40:05;;;;;;;1.20;1.10;;;;;;;;;;5011766;28;20037;-61
2023/03/14 13:42:30;;;;;;;2.17;1.30;;;;;;;;;;5021493;28;20038;-68
2023/03/14 13:44:56;;;;;;;2.25;1.23;;;;;;;;;;5022048;28;20025;-61
2023/03/14 13:47:23;;;;;;;3.55;2.22;;;;;;;;;;5022071;28;20037;-57
2023/03/14 13:49:49;;;;;;;3.58;1.23;;;;;;;;;;5024885;28;20386;-56
2023/03/14 13:52:23;;;;;;;2.05;1.00;;;;;;;;;;5021882;28;20644;-58
2023/03/14 13:54:52;;;;;;;2.55;1.33;;;;;;;;;;5023096;28;20056;-59
2023/03/14 13:57:17;;;;;;;1.50;1.13;;;;;;;;;;5023158;28;20052;-57
2023/03/14 13:59:43;;;;;;;2.13;1.38;;;;;;;;;;5021732;28;20034;-58
2023/03/14 14:02:14;;;;;;;3.25;1.23;;;;;;;;;;5016116;28;20026;-55
2023/03/14 14:04:40;;;;;;;3.08;1.00;;;;;;;;;;5024295;28;20033;-59
2023/03/14 14:07:09;;;;;;;3.42;1.25;;;;;;;;;;5020981;28;20029;-62
2023/03/14 14:09:47;;;;;;;3.65;1.13;;;;;;;;;;5020017;28;20033;-57
2023/03/14 14:12:15;;;;;;;4.65;1.40;;;;;;;;;;5022032;28;20528;-52
2023/03/14 14:14:49;;;;;;;2.10;1.15;;;;;;;;;;5023457;28;20044;-60
2023/03/14 14:17:17;;;;;;;0.98;0.90;;;;;;;;;;5025726;28;20029;-58
2023/03/14 14:19:43;;;;;;;10.68;2.03;;;;;;;;;;5024627;28;20029;-58
2023/03/14 14:22:10;;;;;;;3.13;1.40;;;;;;;;;;5022721;28;20039;-56
2023/03/14 14:24:35;;;;;;;1.45;1.20;;;;;;;;;;5020318;28;20033;-59
2023/03/14 14:27:07;;;;;;;2.55;1.10;;;;;;;;;;5024117;28;20029;-57
2023/03/14 14:29:33;;;;;;;2.42;1.65;;;;;;;;;;5021945;28;20533;-59
2023/03/14 14:32:07;;;;;;;0.90;0.90;;;;;;;;;;5022405;28;20116;-59
2023/03/14 14:34:49;;;;;;;1.08;1.00;;;;;;;;;;5021538;28;20033;-56
2023/03/14 14:37:18;;;;;;;2.78;1.05;;;;;;;;;;5019391;28;20041;-55
2023/03/14 14:39:44;;;;;;;1.13;1.00;;;;;;;;;;5022346;28;20029;-61
2023/03/14 14:42:13;;;;;;;1.83;0.80;;;;;;;;;;5024060;28;20037;-59
2023/03/14 14:44:38;;;;;;;2.30;1.20;;;;;;;;;;5019841;28;20065;-60
2023/03/14 14:47:04;;;;;;;3.20;1.20;;;;;;;;;;5021862;28;20124;-63
2023/03/14 14:49:30;;;;;;;1.52;1.10;;;;;;;;;;5019469;28;20025;-60
2023/03/14 14:52:01;;;;;;;3.67;1.35;;;;;;;;;;5019192;28;20037;-59
2023/03/14 14:54:36;;;;;;;4.28;1.58;;;;;;;;;;5021992;28;20033;-60